Time;durP1;ratioP1;P1;durP2;ratioP2;P2;SDS_P1;SDS_P2;PMS_P1;PMS_P2;Temp;Humidity;BMP_temperature;BMP_pressure;BME280_temperature;BME280_humidity;BME280_pressure;Samples;Min_cycle;Max_cycle;Signal;HPM_P1;HPM_P2
2023/07/13 00:00:26;;;;;;;6.57;2.00;;;;;;;16.54;78.22;101384.69;6189500;23;20101;-75
2023/07/13 00:02:53;;;;;;;8.57;1.88;;;;;;;16.51;78.85;101382.94;6189810;23;20020;-75
2023/07/13 00:05:21;;;;;;;8.13;1.85;;;;;;;16.47;78.49;101380.44;6189116;23;20064;-75
2023/07/13 00:07:49;;;;;;;3.33;1.67;;;;;;;16.46;78.52;101375.50;6189772;23;20018;-75
2023/07/13 00:10:17;;;;;;;7.43;1.90;;;;;;;16.42;78.97;101375.69;6162401;23;20064;-75
2023/07/13 00:12:44;;;;;;;7.25;1.73;;;;;;;16.39;79.05;101382.03;6189887;23;20052;-75
2023/07/13 00:15:22;;;;;;;12.57;2.40;;;;;;;16.40;79.18;101383.47;6189603;23;20009;-76
2023/07/13 00:17:50;;;;;;;8.40;2.30;;;;;;;16.32;79.54;101383.13;6163119;23;20084;-75
2023/07/13 00:20:18;;;;;;;9.52;1.90;;;;;;;16.28;79.68;101379.88;6189319;23;20053;-75
2023/07/13 00:22:45;;;;;;;6.93;2.40;;;;;;;16.25;79.80;101383.50;6162493;23;20088;-76
2023/07/13 00:25:12;;;;;;;4.85;1.85;;;;;;;16.23;79.55;101385.16;6162805;23;20014;-75
2023/07/13 00:27:42;;;;;;;7.47;2.15;;;;;;;16.19;79.01;101381.91;6157480;23;20022;-75
2023/07/13 00:30:10;;;;;;;8.38;2.00;;;;;;;16.16;79.56;101385.53;6159888;23;20019;-76
2023/07/13 00:32:37;;;;;;;7.32;2.60;;;;;;;16.11;79.40;101388.84;6159626;23;20030;-75
2023/07/13 00:35:05;;;;;;;4.13;1.80;;;;;;;16.08;79.71;101379.78;6157881;23;20464;-76
2023/07/13 00:37:32;;;;;;;5.05;1.77;;;;;;;16.08;78.97;101379.78;6159182;23;20018;-76
2023/07/13 00:39:59;;;;;;;8.90;1.85;;;;;;;16.05;79.61;101374.59;6157777;23;20063;-75
2023/07/13 00:42:25;;;;;;;7.97;1.60;;;;;;;16.02;79.84;101378.94;6157606;23;20026;-75
2023/07/13 00:45:04;;;;;;;3.05;1.52;;;;;;;15.98;79.41;101376.44;6160067;23;20014;-76
2023/07/13 00:47:31;;;;;;;8.95;2.15;;;;;;;15.96;79.92;101380.81;6159432;23;20084;-76
2023/07/13 00:49:58;;;;;;;3.58;1.60;;;;;;;15.96;79.65;101378.13;6159420;23;20054;-75
2023/07/13 00:52:27;;;;;;;9.40;1.88;;;;;;;15.93;80.13;101389.78;6157060;23;20048;-75
2023/07/13 00:54:55;;;;;;;3.53;1.70;;;;;;;15.89;80.16;101387.25;6157980;23;20044;-76
2023/07/13 00:57:22;;;;;;;10.38;1.67;;;;;;;15.87;80.60;101378.19;6159440;23;20018;-75
2023/07/13 00:59:53;;;;;;;7.25;2.08;;;;;;;15.84;80.73;101384.47;6159923;23;20093;-75
2023/07/13 01:02:21;;;;;;;7.50;1.93;;;;;;;15.81;80.50;101377.34;6159342;23;20075;-75
2023/07/13 01:04:48;;;;;;;7.60;2.25;;;;;;;15.77;80.88;101380.19;6159527;23;20018;-75
2023/07/13 01:07:16;;;;;;;4.97;1.92;;;;;;;15.73;81.22;101376.19;6156932;23;20372;-76
2023/07/13 01:09:42;;;;;;;7.72;1.67;;;;;;;15.68;81.27;101370.28;6159467;23;20018;-75
2023/07/13 01:12:09;;;;;;;4.68;1.77;;;;;;;15.65;81.81;101376.56;6157755;23;20337;-75
2023/07/13 01:14:36;;;;;;;5.97;1.77;;;;;;;15.62;81.82;101385.53;6159564;23;20018;-77
2023/07/13 01:17:03;;;;;;;8.77;1.90;;;;;;;15.62;82.00;101382.09;6159268;23;20093;-76
2023/07/13 01:19:42;;;;;;;3.90;1.70;;;;;;;15.61;81.76;101385.97;6133403;23;20022;-75
2023/07/13 01:22:11;;;;;;;4.97;1.98;;;;;;;15.58;82.49;101393.03;6157017;23;20022;-76
2023/07/13 01:24:40;;;;;;;4.90;1.88;;;;;;;15.56;82.63;101398.09;6159483;23;20424;-75
2023/07/13 01:27:08;;;;;;;7.57;2.35;;;;;;;15.54;82.15;101397.78;6156878;23;20022;-75
2023/07/13 01:29:41;;;;;;;2.97;1.95;;;;;;;15.52;82.80;101391.41;6159506;23;20187;-75
2023/07/13 01:32:23;;;;;;;7.05;1.60;;;;;;;15.51;83.17;101395.28;6159484;23;20022;-75
2023/07/13 01:34:54;;;;;;;3.08;2.03;;;;;;;15.45;83.38;101389.78;6157396;23;20038;-75
2023/07/13 01:37:26;;;;;;;8.50;2.35;;;;;;;15.44;83.92;101393.69;6159371;23;20018;-75
2023/07/13 01:39:52;;;;;;;6.90;2.22;;;;;;;15.45;83.53;101397.09;6159834;23;20048;-75
2023/07/13 01:42:19;;;;;;;4.38;1.85;;;;;;;15.42;83.83;101398.00;6159005;23;20020;-75
2023/07/13 01:44:47;;;;;;;8.35;2.47;;;;;;;15.37;84.18;101390.59;6157745;23;20022;-75
2023/07/13 01:47:14;;;;;;;7.75;2.28;;;;;;;15.31;85.10;101388.53;6157430;23;20029;-75
2023/07/13 01:49:41;;;;;;;5.80;2.10;;;;;;;15.26;84.85;101386.47;6158655;23;20022;-75
2023/07/13 01:52:07;;;;;;;7.85;2.20;;;;;;;15.22;85.38;101385.16;6159423;23;20405;-75
2023/07/13 01:54:34;;;;;;;6.93;1.98;;;;;;;15.19;85.72;101389.50;6159403;23;20092;-75
2023/07/13 01:57:01;;;;;;;9.85;2.20;;;;;;;15.17;85.54;101399.94;6157243;23;20101;-75
2023/07/13 01:59:27;;;;;;;5.82;2.22;;;;;;;15.15;85.42;101391.63;6157115;23;20030;-75
2023/07/13 02:01:54;;;;;;;5.43;2.30;;;;;;;15.10;85.85;101397.59;6157396;23;20052;-75
2023/07/13 02:04:21;;;;;;;5.20;1.90;;;;;;;15.07;85.88;101393.16;6158551;23;20601;-74
2023/07/13 02:06:48;;;;;;;5.88;1.90;;;;;;;15.04;86.12;101393.31;6157786;23;20897;-75
2023/07/13 02:09:15;;;;;;;9.68;2.10;;;;;;;15.03;85.89;101397.94;6157267;23;20088;-75
2023/07/13 02:11:42;;;;;;;12.20;2.25;;;;;;;15.00;86.69;101396.91;6157054;23;20045;-75
2023/07/13 02:14:09;;;;;;;10.50;2.42;;;;;;;14.98;86.48;101403.91;6159081;23;20014;-75
2023/07/13 02:16:35;;;;;;;7.20;2.33;;;;;;;14.96;87.08;101412.41;6157106;23;20018;-75
2023/07/13 02:19:02;;;;;;;4.15;1.88;;;;;;;14.93;86.92;101413.31;6158640;23;20428;-75
2023/07/13 02:21:29;;;;;;;7.97;2.55;;;;;;;14.91;87.32;101401.53;6159437;23;20018;-76
2023/07/13 02:23:57;;;;;;;7.15;2.35;;;;;;;14.90;87.23;101403.47;6159366;23;20018;-76
2023/07/13 02:26:24;;;;;;;5.05;2.10;;;;;;;14.85;87.66;101398.72;6157365;23;20109;-76
2023/07/13 02:28:51;;;;;;;11.60;2.60;;;;;;;14.84;87.87;101402.59;6188200;23;20017;-76
2023/07/13 02:31:19;;;;;;;4.90;2.28;;;;;;;14.82;88.17;101404.25;6188363;23;20092;-75
2023/07/13 02:33:46;;;;;;;4.38;2.38;;;;;;;14.78;88.08;101407.13;6162304;23;20422;-76
2023/07/13 02:36:16;;;;;;;10.45;2.78;;;;;;;14.74;88.52;101398.50;6162352;23;20486;-76
2023/07/13 02:38:44;;;;;;;10.30;2.50;;;;;;;14.74;88.89;101397.75;6138496;23;20403;-76
2023/07/13 02:41:12;;;;;;;7.20;2.40;;;;;;;14.72;89.23;101413.53;6188705;23;20407;-76
2023/07/13 02:43:39;;;;;;;4.97;2.05;;;;;;;14.69;89.28;101409.81;6162309;23;20022;-75
2023/07/13 02:46:08;;;;;;;8.88;2.60;;;;;;;14.66;89.80;101411.47;6162033;23;20514;-76
2023/07/13 02:48:37;;;;;;;8.75;2.47;;;;;;;14.64;90.17;101407.75;6187998;23;20049;-75
2023/07/13 02:51:04;;;;;;;8.68;2.60;;;;;;;14.63;90.22;101404.31;6188535;23;20452;-77
2023/07/13 02:53:31;;;;;;;4.90;2.42;;;;;;;14.63;90.13;101398.22;6162033;23;20069;-76
2023/07/13 02:55:57;;;;;;;6.55;2.50;;;;;;;14.60;90.37;101396.44;6162191;23;20436;-76
2023/07/13 02:58:24;;;;;;;10.57;3.45;;;;;;;14.57;90.63;101403.44;6162073;23;20117;-76
2023/07/13 03:00:51;;;;;;;5.18;2.50;;;;;;;14.54;91.48;101406.28;6188884;23;20073;-76
2023/07/13 03:03:18;;;;;;;10.75;2.42;;;;;;;14.52;91.40;101409.41;6160600;23;20028;-73
2023/07/13 03:05:49;;;;;;;8.45;2.47;;;;;;;14.52;92.00;101416.69;6162318;23;20455;-77
2023/07/13 03:08:22;;;;;;;10.23;2.47;;;;;;;14.50;92.02;101413.72;6161503;23;20475;-76
2023/07/13 03:11:02;;;;;;;5.85;2.65;;;;;;;14.47;91.95;101420.72;6189352;23;20069;-77
2023/07/13 03:13:31;;;;;;;3.85;2.50;;;;;;;14.45;92.57;101428.47;6161729;23;20017;-77
2023/07/13 03:15:58;;;;;;;3.33;2.42;;;;;;;14.43;93.18;101422.06;6161790;23;20399;-76
2023/07/13 03:18:27;;;;;;;8.80;2.65;;;;;;;14.39;93.73;101424.91;6161103;23;20021;-77
2023/07/13 03:20:55;;;;;;;7.32;2.42;;;;;;;14.39;93.78;101424.91;6161973;23;20029;-76
2023/07/13 03:23:22;;;;;;;6.90;2.65;;;;;;;14.36;94.00;101423.13;6188518;23;20017;-76
2023/07/13 03:25:49;;;;;;;11.65;3.00;;;;;;;14.37;93.76;101421.19;6162173;23;20017;-76
2023/07/13 03:28:16;;;;;;;10.85;2.90;;;;;;;14.34;94.24;101420.88;6132037;23;20085;-76
2023/07/13 03:30:43;;;;;;;11.82;3.05;;;;;;;14.35;94.08;101427.00;6157294;23;20014;-77
2023/07/13 03:33:10;;;;;;;9.80;2.60;;;;;;;14.33;94.50;101432.03;6156192;23;20022;-76
2023/07/13 03:35:40;;;;;;;4.38;2.55;;;;;;;14.31;94.44;101437.84;6156509;23;20405;-76
2023/07/13 03:38:07;;;;;;;9.15;3.05;;;;;;;14.29;95.02;101437.56;6156431;23;20541;-76
2023/07/13 03:40:34;;;;;;;7.30;2.88;;;;;;;14.30;95.32;101431.00;6133319;23;20018;-77
2023/07/13 03:43:02;;;;;;;7.05;2.75;;;;;;;14.29;95.73;101434.88;6132910;23;20080;-77
2023/07/13 03:45:30;;;;;;;9.68;2.95;;;;;;;14.30;96.11;101441.72;6157076;23;20065;-77
2023/07/13 03:47:56;;;;;;;7.45;2.80;;;;;;;14.29;96.70;101444.84;6159655;23;20108;-77
2023/07/13 03:50:24;;;;;;;11.40;2.67;;;;;;;14.30;96.47;101441.72;6159900;23;20014;-77
2023/07/13 03:52:51;;;;;;;10.07;3.15;;;;;;;14.29;96.17;101448.25;6160390;23;20085;-77
2023/07/13 03:55:18;;;;;;;12.13;3.05;;;;;;;14.30;96.78;101447.06;6157687;23;20075;-76
2023/07/13 03:57:45;;;;;;;7.75;3.42;;;;;;;14.28;97.34;101451.38;6158517;23;20427;-77
2023/07/13 04:00:12;;;;;;;8.07;3.15;;;;;;;14.30;97.54;101467.75;6157281;23;20101;-77
2023/07/13 04:02:42;;;;;;;8.60;2.85;;;;;;;14.30;97.57;101454.38;6160313;23;20026;-77
2023/07/13 04:05:09;;;;;;;5.38;2.88;;;;;;;14.32;97.46;101452.00;6158201;23;20028;-76
2023/07/13 04:07:36;;;;;;;7.15;3.20;;;;;;;14.32;97.80;101460.75;6159820;23;20022;-76
2023/07/13 04:10:02;;;;;;;5.00;2.50;;;;;;;14.34;97.74;101466.41;6160147;23;20022;-77
2023/07/13 04:12:30;;;;;;;14.95;3.20;;;;;;;14.39;97.55;101467.00;6158150;23;20089;-76
2023/07/13 04:14:56;;;;;;;10.77;2.95;;;;;;;14.43;97.30;101468.34;6158921;23;20018;-77
2023/07/13 04:17:23;;;;;;;7.43;3.30;;;;;;;14.44;96.82;101463.75;6159586;23;20028;-76
2023/07/13 04:19:50;;;;;;;9.52;3.22;;;;;;;14.44;97.34;101471.78;6158378;23;20077;-77
2023/07/13 04:22:17;;;;;;;6.75;3.25;;;;;;;14.43;97.34;101473.72;6159661;23;20062;-76
2023/07/13 04:24:44;;;;;;;9.52;3.17;;;;;;;14.46;97.22;101472.06;6159979;23;20014;-74
2023/07/13 04:27:11;;;;;;;7.75;3.45;;;;;;;14.49;97.55;101477.28;6157436;23;20022;-75
2023/07/13 04:29:37;;;;;;;5.22;3.17;;;;;;;14.52;97.30;101478.31;6158716;23;20014;-74
2023/07/13 04:32:04;;;;;;;11.50;3.40;;;;;;;14.54;97.27;101487.41;6157734;23;20368;-75
2023/07/13 04:34:31;;;;;;;10.68;3.42;;;;;;;14.57;97.41;101480.41;6159491;23;20085;-76
2023/07/13 04:36:58;;;;;;;7.97;3.35;;;;;;;14.59;97.84;101484.13;6157874;23;20093;-76
2023/07/13 04:39:24;;;;;;;6.75;3.28;;;;;;;14.59;98.00;101486.81;6159513;23;20020;-75
2023/07/13 04:41:51;;;;;;;10.45;3.80;;;;;;;14.62;97.50;101482.47;6159564;23;20022;-75
2023/07/13 04:44:17;;;;;;;11.52;3.70;;;;;;;14.67;97.59;101476.53;6158885;23;20118;-75
2023/07/13 04:46:44;;;;;;;10.90;3.90;;;;;;;14.77;97.78;101482.63;6159689;23;20026;-75
2023/07/13 04:49:11;;;;;;;8.95;3.38;;;;;;;14.87;97.42;101487.47;6159625;23;20018;-75
2023/07/13 04:51:38;;;;;;;11.23;4.03;;;;;;;14.92;97.30;101478.84;6157243;23;20018;-78
2023/07/13 04:54:05;;;;;;;10.40;3.95;;;;;;;14.96;97.19;101482.09;6159350;23;20093;-74
2023/07/13 04:56:31;;;;;;;8.45;3.67;;;;;;;15.00;97.07;101488.06;6159054;23;20050;-74
2023/07/13 04:58:58;;;;;;;11.13;3.85;;;;;;;15.08;96.85;101482.38;6158650;23;20030;-75
2023/07/13 05:01:25;;;;;;;12.95;4.05;;;;;;;15.14;97.05;101478.63;6159196;23;20018;-74
2023/07/13 05:03:51;;;;;;;8.48;3.58;;;;;;;15.33;96.31;101479.28;6159318;23;20029;-75
2023/07/13 05:06:18;;;;;;;10.45;4.28;;;;;;;15.62;95.75;101478.69;6159167;23;20427;-75
2023/07/13 05:08:45;;;;;;;9.20;3.72;;;;;;;15.87;93.38;101485.56;6159563;23;20096;-75
2023/07/13 05:11:11;;;;;;;19.35;4.22;;;;;;;16.19;91.95;101489.38;6159064;23;20464;-74
2023/07/13 05:13:38;;;;;;;10.75;3.83;;;;;;;16.13;91.29;101488.50;6158644;23;20014;-74
2023/07/13 05:16:07;;;;;;;16.13;4.10;;;;;;;16.02;92.07;101492.47;6157258;23;20022;-75
2023/07/13 05:18:34;;;;;;;9.32;4.00;;;;;;;15.97;92.53;101493.13;6159200;23;20069;-75
2023/07/13 05:21:04;;;;;;;11.63;4.20;;;;;;;16.12;92.48;101493.13;6159344;23;20041;-75
2023/07/13 05:23:32;;;;;;;19.23;4.38;;;;;;;16.10;92.42;101495.53;6159099;23;20018;-74
2023/07/13 05:25:59;;;;;;;14.88;4.22;;;;;;;16.13;92.40;101500.00;6157642;23;20018;-74
2023/07/13 05:28:27;;;;;;;14.70;4.40;;;;;;;16.09;92.72;101496.00;6182913;23;20035;-75
2023/07/13 05:30:55;;;;;;;18.60;5.35;;;;;;;16.20;92.72;101505.03;6188834;23;20037;-75
2023/07/13 05:33:23;;;;;;;14.95;4.68;;;;;;;16.73;90.09;101509.66;6160495;23;20021;-76
2023/07/13 05:35:50;;;;;;;11.25;4.72;;;;;;;16.61;90.38;101510.66;6187580;23;20017;-74
2023/07/13 05:38:17;;;;;;;11.48;4.97;;;;;;;16.45;91.08;101516.44;6187411;23;20364;-73
2023/07/13 05:40:45;;;;;;;16.75;5.32;;;;;;;16.30;91.54;101517.19;6188287;23;20029;-72
2023/07/13 05:43:13;;;;;;;9.95;5.00;;;;;;;16.26;92.17;101516.63;6189360;23;20077;-74
2023/07/13 05:45:40;;;;;;;16.65;6.20;;;;;;;16.24;92.86;101524.41;6189594;23;20025;-74
2023/07/13 05:48:06;;;;;;;14.93;5.63;;;;;;;16.27;92.92;101523.47;6163355;23;20092;-73
2023/07/13 05:50:33;;;;;;;14.05;5.97;;;;;;;16.32;93.23;101527.47;6189533;23;20014;-73
2023/07/13 05:53:00;;;;;;;14.88;6.05;;;;;;;16.34;92.76;101531.19;6163079;23;20017;-74
2023/07/13 05:55:26;;;;;;;12.98;6.38;;;;;;;16.34;93.41;101523.13;6189612;23;20024;-73
2023/07/13 05:57:53;;;;;;;17.95;6.78;;;;;;;16.36;93.31;101525.34;6189031;23;20447;-75
2023/07/13 06:00:20;;;;;;;16.20;6.47;;;;;;;16.43;93.74;101538.41;6189460;23;20069;-74
2023/07/13 06:02:47;;;;;;;16.30;6.28;;;;;;;16.45;93.26;101529.88;6189612;23;20085;-73
2023/07/13 06:05:14;;;;;;;19.13;6.63;;;;;;;16.49;93.03;101544.63;6189728;23;20018;-73
2023/07/13 06:07:41;;;;;;;18.40;6.35;;;;;;;16.56;93.35;101548.91;6189591;23;20418;-73
2023/07/13 06:10:08;;;;;;;12.88;6.63;;;;;;;16.66;93.08;101550.34;6189742;23;20018;-73
2023/07/13 06:12:35;;;;;;;16.50;6.88;;;;;;;16.68;92.71;101553.31;6188447;23;20435;-73
2023/07/13 06:15:02;;;;;;;21.88;7.30;;;;;;;16.72;92.39;101545.81;6189536;23;20017;-73
2023/07/13 06:17:29;;;;;;;15.32;7.35;;;;;;;16.77;92.30;101558.63;6189100;23;20021;-73
2023/07/13 06:19:56;;;;;;;17.20;6.85;;;;;;;16.89;92.35;101551.47;6189692;23;20426;-73
2023/07/13 06:22:22;;;;;;;29.50;7.63;;;;;;;17.02;92.12;101560.00;6162801;23;20088;-74
2023/07/13 06:24:49;;;;;;;12.52;7.05;;;;;;;17.07;91.09;101559.38;6189716;23;20076;-74
2023/07/13 06:27:16;;;;;;;17.92;6.88;;;;;;;17.17;91.31;101562.72;6188614;23;20020;-74
2023/07/13 06:29:44;;;;;;;20.77;7.40;;;;;;;17.23;91.24;101577.72;6163076;23;20105;-74
2023/07/13 06:32:11;;;;;;;19.50;7.47;;;;;;;17.31;90.88;101570.75;6162513;23;20049;-74
2023/07/13 06:34:38;;;;;;;18.80;7.82;;;;;;;17.47;89.98;101571.47;6162661;23;20766;-74
2023/07/13 06:37:09;;;;;;;17.08;7.07;;;;;;;17.54;89.47;101576.47;6163825;23;20156;-74
2023/07/13 06:39:36;;;;;;;15.77;7.15;;;;;;;17.47;89.06;101577.59;6188851;23;20014;-75
2023/07/13 06:42:02;;;;;;;20.27;7.40;;;;;;;17.44;89.29;101573.16;6188928;23;20013;-75
2023/07/13 06:44:29;;;;;;;15.80;7.00;;;;;;;17.44;89.40;101572.41;6189132;23;20192;-75
2023/07/13 06:46:56;;;;;;;15.52;7.28;;;;;;;17.54;88.93;101576.47;6162469;23;20100;-74
2023/07/13 06:49:22;;;;;;;15.00;7.32;;;;;;;17.55;89.25;101575.28;6162628;23;20085;-74
2023/07/13 06:51:49;;;;;;;15.40;7.47;;;;;;;17.59;88.35;101565.78;6189389;23;20444;-74
2023/07/13 06:54:16;;;;;;;15.65;7.68;;;;;;;17.67;88.80;101568.84;6188648;23;20081;-74
2023/07/13 06:56:43;;;;;;;19.75;8.10;;;;;;;17.76;88.32;101573.38;6188887;23;20399;-75
2023/07/13 06:59:09;;;;;;;18.25;7.85;;;;;;;18.00;87.60;101573.94;6189020;23;20018;-74
2023/07/13 07:01:36;;;;;;;18.50;7.55;;;;;;;18.31;86.45;101576.78;6188966;23;20044;-73
2023/07/13 07:04:06;;;;;;;14.93;7.82;;;;;;;18.79;84.70;101586.38;6189223;23;20490;-74
2023/07/13 07:06:33;;;;;;;12.63;6.90;;;;;;;18.96;83.08;101582.59;6162551;23;20093;-74
2023/07/13 07:08:59;;;;;;;12.48;7.47;;;;;;;18.84;82.77;101594.50;6188687;23;20101;-74
2023/07/13 07:11:26;;;;;;;21.58;7.45;;;;;;;18.76;82.59;101593.47;6188737;23;20069;-72
2023/07/13 07:13:54;;;;;;;14.82;7.10;;;;;;;18.87;82.77;101598.94;6189455;23;20018;-73
2023/07/13 07:16:20;;;;;;;24.63;7.82;;;;;;;18.97;81.35;101600.28;6190152;23;20017;-73
2023/07/13 07:18:47;;;;;;;14.52;8.00;;;;;;;19.07;81.47;101600.84;6190261;23;20013;-72
2023/07/13 07:21:14;;;;;;;19.52;8.02;;;;;;;19.07;81.28;101597.41;6190256;23;20014;-74
2023/07/13 07:23:42;;;;;;;12.48;7.35;;;;;;;18.96;81.52;101609.56;6189538;23;20021;-75
2023/07/13 07:26:10;;;;;;;13.93;7.35;;;;;;;18.85;82.17;101606.03;6163224;23;20059;-72
2023/07/13 07:28:36;;;;;;;16.95;7.65;;;;;;;18.77;84.75;101605.00;6133543;23;20168;-74
2023/07/13 07:31:07;;;;;;;14.40;8.23;;;;;;;18.68;84.88;101613.97;6159953;23;20056;-74
2023/07/13 07:33:36;;;;;;;19.83;7.90;;;;;;;18.54;86.29;101614.75;6159917;23;20420;-73
2023/07/13 07:36:03;;;;;;;15.82;7.75;;;;;;;18.48;87.88;101612.00;6160043;23;20092;-74
2023/07/13 07:38:33;;;;;;;18.35;7.78;;;;;;;18.52;89.51;101617.19;6159998;23;20096;-74
2023/07/13 07:41:04;;;;;;;16.23;7.70;;;;;;;18.60;89.48;101610.19;6160435;23;20444;-73
2023/07/13 07:43:34;;;;;;;14.48;7.75;;;;;;;18.66;90.86;101611.00;6160282;23;20022;-74
2023/07/13 07:46:02;;;;;;;15.95;7.68;;;;;;;18.64;90.96;101605.34;6160398;23;20584;-73
2023/07/13 07:48:30;;;;;;;15.45;8.85;;;;;;;18.60;89.48;101599.41;6158275;23;20014;-73
2023/07/13 07:50:56;;;;;;;22.45;8.77;;;;;;;18.59;90.08;101593.25;6160214;23;20042;-74
2023/07/13 07:53:23;;;;;;;23.15;8.32;;;;;;;18.67;90.26;101595.56;6159923;23;20022;-74
2023/07/13 07:55:51;;;;;;;18.08;8.18;;;;;;;18.64;89.87;101591.84;6160242;23;20491;-74
2023/07/13 07:58:20;;;;;;;16.65;8.00;;;;;;;18.55;89.51;101589.28;6160291;23;20080;-74
2023/07/13 08:00:50;;;;;;;17.73;7.70;;;;;;;18.54;90.68;101591.22;6160343;23;20041;-74
2023/07/13 08:03:20;;;;;;;14.27;7.80;;;;;;;18.61;88.84;101584.72;6159852;23;20032;-75
2023/07/13 08:05:53;;;;;;;14.05;7.40;;;;;;;18.76;89.94;101592.72;6160357;23;20444;-75
2023/07/13 08:08:23;;;;;;;15.20;8.15;;;;;;;19.15;88.32;101591.13;6159593;23;20159;-75
2023/07/13 08:10:49;;;;;;;15.77;7.43;;;;;;;19.51;88.71;101602.44;6160493;23;20018;-75
2023/07/13 08:13:16;;;;;;;17.40;8.13;;;;;;;19.58;85.69;101593.91;6160498;23;20025;-76
2023/07/13 08:15:43;;;;;;;17.73;7.28;;;;;;;19.64;86.35;101600.78;6160552;23;20033;-76
2023/07/13 08:18:10;;;;;;;14.30;6.70;;;;;;;19.79;85.61;101595.25;6160628;23;20041;-75
2023/07/13 08:20:38;;;;;;;10.90;6.63;;;;;;;19.80;83.04;101593.28;6159992;23;20337;-75
2023/07/13 08:23:09;;;;;;;9.68;6.50;;;;;;;19.58;83.73;101593.91;6159668;23;20089;-76
2023/07/13 08:25:36;;;;;;;12.65;6.22;;;;;;;19.39;80.99;101590.78;6160142;23;20463;-76
2023/07/13 08:28:03;;;;;;;13.50;5.90;;;;;;;19.26;83.37;101606.63;6158322;23;20036;-75
2023/07/13 08:30:30;;;;;;;13.10;5.65;;;;;;;19.73;81.88;101607.97;6160075;23;20025;-75
2023/07/13 08:32:57;;;;;;;10.18;5.53;;;;;;;19.93;80.87;101596.31;6160420;23;20380;-76
2023/07/13 08:35:25;;;;;;;11.02;5.97;;;;;;;20.31;79.14;101603.84;6159572;23;20094;-76
2023/07/13 08:37:52;;;;;;;15.25;5.30;;;;;;;20.58;79.27;101596.31;6160548;23;20032;-76
2023/07/13 08:40:24;;;;;;;13.00;5.40;;;;;;;20.68;76.57;101591.44;6160252;23;20487;-76
2023/07/13 08:42:56;;;;;;;7.53;4.63;;;;;;;20.53;75.17;101597.03;6160244;23;20499;-76
2023/07/13 08:45:53;;;;;;;9.25;3.88;;;;;;;20.46;73.60;101590.13;6159914;23;20020;-76
2023/07/13 08:48:55;;;;;;;8.30;3.60;;;;;;;20.42;73.74;101600.44;6089817;23;20025;-75
2023/07/13 08:51:40;;;;;;;5.93;2.53;;;;;;;20.85;73.05;101613.81;6157452;23;20042;-75
2023/07/13 08:54:31;;;;;;;4.25;2.78;;;;;;;21.01;69.99;101625.91;6160581;23;20085;-76
2023/07/13 08:57:02;;;;;;;2.63;2.35;;;;;;;20.61;69.64;101622.38;6160240;23;20099;-76
2023/07/13 08:59:32;;;;;;;4.82;2.50;;;;;;;20.35;72.06;101624.50;6160030;23;20469;-76
2023/07/13 09:02:25;;;;;;;5.63;2.43;;;;;;;20.16;71.73;101632.28;6160405;23;20050;-75
2023/07/13 09:05:04;;;;;;;4.38;2.30;;;;;;;19.90;71.01;101627.75;6159530;23;20412;-75
2023/07/13 09:07:54;;;;;;;6.63;2.78;;;;;;;19.80;71.28;101634.56;6160184;23;20471;-76
2023/07/13 09:10:31;;;;;;;3.22;2.50;;;;;;;19.71;71.83;101634.00;6160329;23;20018;-75
2023/07/13 09:13:29;;;;;;;5.95;2.72;;;;;;;19.64;73.37;101641.31;6160301;23;20018;-76
2023/07/13 09:15:58;;;;;;;6.05;2.80;;;;;;;19.68;74.57;101626.84;6160380;23;20413;-76
2023/07/13 09:18:39;;;;;;;5.55;2.90;;;;;;;19.64;75.88;101627.81;6160022;23;20025;-77
2023/07/13 09:21:39;;;;;;;5.43;3.10;;;;;;;19.80;77.03;101615.63;6158213;23;20022;-76
2023/07/13 09:24:42;;;;;;;5.57;3.10;;;;;;;19.91;77.18;101625.78;6160192;23;20021;-74
2023/07/13 09:27:17;;;;;;;6.00;2.55;;;;;;;20.04;75.38;101628.78;6168286;23;20498;-76
2023/07/13 09:29:51;;;;;;;5.28;2.80;;;;;;;20.20;75.03;101624.69;6190246;23;20013;-76
2023/07/13 09:32:22;;;;;;;5.90;3.08;;;;;;;20.33;73.89;101622.28;6190638;23;20017;-77
2023/07/13 09:34:52;;;;;;;4.82;2.63;;;;;;;20.29;72.56;101627.19;6189496;23;20022;-76
2023/07/13 09:37:21;;;;;;;5.47;2.80;;;;;;;20.48;74.03;101628.25;6189414;23;20025;-76
2023/07/13 09:39:50;;;;;;;3.83;2.90;;;;;;;20.70;70.58;101621.44;6189989;23;20490;-76
2023/07/13 09:42:21;;;;;;;9.00;2.95;;;;;;;21.17;69.37;101617.06;6190051;23;20020;-77
2023/07/13 09:45:02;;;;;;;4.40;2.38;;;;;;;21.20;68.18;101627.63;6162423;23;20022;-77
2023/07/13 09:47:31;;;;;;;6.13;2.60;;;;;;;20.91;66.51;101631.53;6161304;23;20024;-77
2023/07/13 09:50:06;;;;;;;3.22;2.90;;;;;;;20.41;69.31;101644.94;6161368;23;20024;-78
2023/07/13 09:52:46;;;;;;;4.13;2.42;;;;;;;20.12;71.56;101642.56;6187905;23;20415;-80
2023/07/13 09:55:28;;;;;;;8.90;2.80;;;;;;;19.71;73.58;101677.94;6161874;23;20087;-80
2023/07/13 09:57:55;;;;;;;7.53;3.17;;;;;;;19.20;79.44;101676.03;6188451;23;20022;-80
2023/07/13 10:00:28;;;;;;;4.07;2.70;;;;;;;18.76;79.64;101663.59;6188276;23;20149;-79
2023/07/13 10:02:59;;;;;;;5.95;2.38;;;;;;;18.53;80.52;101662.53;6163671;23;20017;-88
2023/07/13 10:05:26;;;;;;;3.35;2.70;;;;;;;18.57;82.75;101656.94;6189445;23;20093;-78
2023/07/13 10:07:56;;;;;;;4.55;2.72;;;;;;;19.01;84.04;101669.47;6189773;23;20076;-75
2023/07/13 10:10:23;;;;;;;4.30;2.70;;;;;;;19.59;84.74;101663.63;6189182;23;20021;-77
2023/07/13 10:12:50;;;;;;;5.72;2.85;;;;;;;19.91;83.77;101658.19;6189793;23;20018;-76
2023/07/13 10:15:21;;;;;;;6.18;2.78;;;;;;;19.97;82.44;101664.38;6138443;23;20482;-76
2023/07/13 10:17:57;;;;;;;3.95;2.88;;;;;;;20.22;84.19;101666.22;6163575;23;20024;-75
2023/07/13 10:20:26;;;;;;;4.63;2.75;;;;;;;20.19;81.27;101679.97;6189500;23;20025;-76
2023/07/13 10:23:14;;;;;;;3.65;2.88;;;;;;;19.99;83.04;101672.75;6189903;23;20013;-76
2023/07/13 10:25:44;;;;;;;4.20;2.83;;;;;;;20.04;80.14;101676.69;6189313;23;20014;-75
2023/07/13 10:28:30;;;;;;;3.80;2.93;;;;;;;20.03;79.98;101669.78;6189276;23;20021;-76
2023/07/13 10:31:00;;;;;;;4.20;2.78;;;;;;;20.44;80.12;101670.28;6189416;23;20237;-75
2023/07/13 10:33:27;;;;;;;5.35;2.83;;;;;;;20.78;79.84;101671.88;6188897;23;20013;-75
2023/07/13 10:36:37;;;;;;;4.10;2.50;;;;;;;20.95;79.76;101672.66;6189544;23;20037;-76
2023/07/13 10:39:05;;;;;;;4.25;2.95;;;;;;;20.87;75.88;101668.94;6164353;23;20022;-77
2023/07/13 10:41:38;;;;;;;5.32;2.97;;;;;;;20.69;78.13;101674.06;6189083;23;20017;-77
2023/07/13 10:44:15;;;;;;;3.55;2.88;;;;;;;20.39;78.04;101676.41;6189583;23;20091;-75
2023/07/13 10:46:43;;;;;;;3.47;2.60;;;;;;;20.24;78.42;101673.84;6188597;23;20014;-77
2023/07/13 10:49:12;;;;;;;3.80;2.40;;;;;;;20.05;74.46;101681.59;6161952;23;20391;-75
2023/07/13 10:51:40;;;;;;;3.00;2.35;;;;;;;20.28;77.09;101683.22;6189561;23;20024;-76
2023/07/13 10:54:27;;;;;;;3.15;2.67;;;;;;;20.95;77.02;101683.47;6189185;23;20018;-77
2023/07/13 10:57:12;;;;;;;3.95;2.60;;;;;;;21.46;74.59;101687.00;6189222;23;20009;-77
2023/07/13 10:59:41;;;;;;;3.83;2.58;;;;;;;21.75;74.72;101685.75;6188745;23;20052;-75
2023/07/13 11:02:27;;;;;;;4.93;2.65;;;;;;;22.06;70.77;101682.00;6188591;23;20013;-78
2023/07/13 11:04:57;;;;;;;3.50;2.40;;;;;;;22.07;66.74;101688.16;6189530;23;20483;-77
2023/07/13 11:07:30;;;;;;;3.40;1.80;;;;;;;22.20;65.09;101694.56;6162622;23;20014;-77
2023/07/13 11:09:59;;;;;;;2.15;1.83;;;;;;;22.38;62.76;101697.97;6189390;23;20041;-77
2023/07/13 11:12:44;;;;;;;3.53;2.00;;;;;;;22.50;64.80;101702.09;6188839;23;20108;-77
2023/07/13 11:15:13;;;;;;;4.95;2.10;;;;;;;22.64;63.89;101703.75;6137439;23;20021;-78
2023/07/13 11:17:59;;;;;;;2.53;2.08;;;;;;;22.25;62.28;101712.03;6188858;23;20041;-78
2023/07/13 11:20:39;;;;;;;6.05;2.47;;;;;;;22.13;63.05;101710.59;6189152;23;20018;-78
2023/07/13 11:23:11;;;;;;;2.42;2.22;;;;;;;21.69;64.21;101705.94;6189392;23;20100;-77
2023/07/13 11:25:39;;;;;;;3.08;2.58;;;;;;;21.81;62.34;101696.56;6162746;23;20022;-77
2023/07/13 11:28:11;;;;;;;3.22;2.50;;;;;;;21.55;63.32;101697.59;6188756;23;20044;-77
2023/07/13 11:30:43;;;;;;;4.82;2.70;;;;;;;21.43;64.65;101689.94;6188267;23;20025;-77
2023/07/13 11:33:22;;;;;;;3.60;2.53;;;;;;;21.60;64.74;101688.69;6162752;23;20022;-78